Albia, Iowa
Current Conditions -  °F | °C
As of 5:55 AM on Thursday 23 Oct 2014 (Local Time) from KOOA Reporting Station
Broken Clouds Broken Clouds  
Wind Chill: 47°   Ceiling: 11000
Heat Index: 49°   Visibility: 10mi
Dew Point: 42°   Wind: 7mph
Humidity: 76%   Direction: 150°SSE
Pressure: 30.08"   Gusts: NA
Location:  41.03°N, 92.81°W
Report Text: KOOA 231055Z AUTO 15006KT 10SM SCT070 SCT080 BKN110 10/06 A3008 RMK AO2 T00970057
Loading
Personal Weather Stations






























Interactive Weather Map
Tropical Storm Tracking
New forecast layout! Learn more

10-Day Weather Forecast

Advertisements
Track Severe Weather on mobile